createdAt,value
2022-10-23T00:01:28.784Z,99290.00
2022-10-23T00:03:09.566Z,99285.00
2022-10-23T00:04:47.819Z,99277.00
2022-10-23T00:06:27.663Z,99285.00
2022-10-23T00:08:06.544Z,99280.00
2022-10-23T00:09:47.564Z,99281.00
2022-10-23T00:11:25.771Z,99283.00
2022-10-23T00:13:03.581Z,99286.00
2022-10-23T00:14:41.831Z,99288.00
2022-10-23T00:16:19.677Z,99281.00
2022-10-23T00:17:57.213Z,99280.00
2022-10-23T00:19:34.799Z,99276.00
2022-10-23T00:21:14.388Z,99278.00
2022-10-23T00:22:57.573Z,99274.00
2022-10-23T00:24:34.320Z,99281.00
2022-10-23T00:26:16.548Z,99271.00
2022-10-23T00:27:53.998Z,99265.00
2022-10-23T00:29:31.887Z,99266.00
2022-10-23T00:31:10.740Z,99269.00
2022-10-23T00:32:51.574Z,99277.00
2022-10-23T00:34:31.374Z,99271.00
2022-10-23T00:36:11.861Z,99281.00
2022-10-23T00:37:49.588Z,99267.00
2022-10-23T00:39:29.290Z,99275.00
2022-10-23T00:41:09.674Z,99288.00
2022-10-23T00:42:48.786Z,99286.00
2022-10-23T00:45:28.712Z,99291.00
2022-10-23T00:47:07.063Z,99287.00
2022-10-23T00:48:44.126Z,99290.00
2022-10-23T00:50:26.445Z,99289.00
2022-10-23T00:52:11.783Z,99287.00
2022-10-23T00:54:01.159Z,99275.00
2022-10-23T00:55:49.388Z,99289.00
2022-10-23T00:57:26.720Z,99289.00
2022-10-23T00:59:05.158Z,99282.00
2022-10-23T01:00:51.169Z,99289.00
2022-10-23T01:02:27.689Z,99293.00
2022-10-23T01:04:07.569Z,99281.00
2022-10-23T01:05:58.946Z,99290.00
2022-10-23T01:07:49.779Z,99289.00
2022-10-23T01:09:36.275Z,99280.00
2022-10-23T01:11:23.429Z,99282.00
2022-10-23T01:13:17.508Z,99277.00
2022-10-23T01:15:07.415Z,99281.00
2022-10-23T01:16:55.060Z,99289.00
2022-10-23T01:18:43.684Z,99277.00
2022-10-23T01:20:41.624Z,99275.00
2022-10-23T01:22:40.744Z,99281.00
2022-10-23T01:24:38.140Z,99278.00
2022-10-23T01:26:46.533Z,99286.00
2022-10-23T01:28:33.356Z,99275.00
2022-10-23T01:30:18.222Z,99281.00
2022-10-23T01:32:09.513Z,99274.00
2022-10-23T01:34:16.730Z,99284.00
2022-10-23T01:36:05.868Z,99272.00
2022-10-23T01:37:48.519Z,99271.00
2022-10-23T01:39:32.497Z,99280.00
2022-10-23T01:41:21.197Z,99273.00
2022-10-23T01:43:13.926Z,99285.00
2022-10-23T01:45:04.676Z,99271.00
2022-10-23T01:46:56.479Z,99271.00
2022-10-23T01:48:36.741Z,99268.00
2022-10-23T01:50:18.236Z,99268.00
2022-10-23T01:52:04.443Z,99268.00
2022-10-23T01:53:49.059Z,99271.00
2022-10-23T01:55:28.936Z,99269.00
2022-10-23T01:57:13.341Z,99250.00
2022-10-23T01:58:56.579Z,99258.00
2022-10-23T02:00:38.574Z,99242.00
2022-10-23T02:02:16.275Z,99233.00
2022-10-23T02:04:00.345Z,99240.00
2022-10-23T02:05:37.016Z,99239.00
2022-10-23T02:07:14.907Z,99234.00
2022-10-23T02:08:53.889Z,99230.00
2022-10-23T02:10:42.850Z,99232.00
2022-10-23T02:12:35.426Z,99230.00
2022-10-23T02:14:29.691Z,99230.00
2022-10-23T02:16:22.835Z,99227.00
2022-10-23T02:18:16.028Z,99226.00
2022-10-23T02:20:05.136Z,99225.00
2022-10-23T02:22:09.563Z,99219.00
2022-10-23T02:23:56.212Z,99214.00
2022-10-23T02:25:44.955Z,99208.00
2022-10-23T02:27:29.789Z,99211.00
2022-10-23T02:29:16.917Z,99205.00
2022-10-23T02:31:03.246Z,99200.00
2022-10-23T02:32:49.592Z,99197.00
2022-10-23T02:34:26.874Z,99195.00
2022-10-23T02:36:05.526Z,99188.00
2022-10-23T02:37:45.416Z,99193.00
2022-10-23T02:39:25.083Z,99197.00
2022-10-23T02:41:16.097Z,99194.00
2022-10-23T02:43:00.870Z,99189.00
2022-10-23T02:44:58.385Z,99196.00
2022-10-23T02:46:47.127Z,99193.00
2022-10-23T02:48:36.049Z,99192.00
2022-10-23T02:50:35.579Z,99176.00
2022-10-23T02:52:24.456Z,99175.00
2022-10-23T02:54:15.264Z,99167.00
2022-10-23T02:56:06.156Z,99178.00
2022-10-23T02:57:53.137Z,99171.00
2022-10-23T02:59:46.334Z,99166.00
2022-10-23T03:01:38.749Z,99164.00
2022-10-23T03:03:23.701Z,99163.00
2022-10-23T03:05:05.086Z,99170.00
2022-10-23T03:06:43.935Z,99168.00
2022-10-23T03:08:28.997Z,99169.00
2022-10-23T03:10:09.177Z,99159.00
2022-10-23T03:11:46.726Z,99154.00
2022-10-23T03:13:27.178Z,99162.00
2022-10-23T03:15:04.764Z,99167.00
2022-10-23T03:16:57.064Z,99156.00
2022-10-23T03:18:35.974Z,99154.00
2022-10-23T03:20:16.726Z,99157.00
2022-10-23T03:21:55.413Z,99151.00
2022-10-23T03:23:33.982Z,99147.00
2022-10-23T03:25:15.448Z,99157.00
2022-10-23T03:26:53.332Z,99150.00
2022-10-23T03:28:41.562Z,99152.00
2022-10-23T03:30:19.710Z,99156.00
2022-10-23T03:32:04.980Z,99151.00
2022-10-23T03:33:43.227Z,99155.00
2022-10-23T03:35:24.381Z,99149.00
2022-10-23T03:37:02.607Z,99152.00
2022-10-23T03:38:41.248Z,99147.00
2022-10-23T03:40:20.985Z,99138.00
2022-10-23T03:41:58.878Z,99133.00
2022-10-23T03:43:37.393Z,99145.00
2022-10-23T03:45:15.057Z,99145.00
2022-10-23T03:46:52.808Z,99137.00
2022-10-23T03:48:33.561Z,99135.00
2022-10-23T03:50:12.456Z,99126.00
2022-10-23T03:51:53.538Z,99126.00
2022-10-23T03:53:31.636Z,99118.00
2022-10-23T03:55:16.494Z,99121.00
2022-10-23T03:56:57.789Z,99113.00
2022-10-23T03:58:37.344Z,99106.00
2022-10-23T04:00:18.340Z,99093.00
2022-10-23T04:01:56.959Z,99095.00
2022-10-23T04:03:37.213Z,99096.00
2022-10-23T04:05:15.548Z,99101.00
2022-10-23T04:07:02.882Z,99094.00
2022-10-23T04:08:40.632Z,99108.00
2022-10-23T04:10:24.133Z,99113.00
2022-10-23T04:12:01.515Z,99113.00
2022-10-23T04:13:38.759Z,99114.00
2022-10-23T04:15:16.644Z,99109.00
2022-10-23T04:16:56.812Z,99112.00
2022-10-23T04:18:36.458Z,99100.00
2022-10-23T04:20:14.473Z,99099.00
2022-10-23T04:21:54.650Z,99097.00
2022-10-23T04:23:32.329Z,99109.00
2022-10-23T04:25:10.741Z,99109.00
2022-10-23T04:26:48.603Z,99101.00
2022-10-23T04:28:26.674Z,99104.00
2022-10-23T04:30:07.803Z,99098.00
2022-10-23T04:31:43.862Z,99100.00
2022-10-23T04:33:24.382Z,99094.00
2022-10-23T04:35:05.379Z,99103.00
2022-10-23T04:36:55.545Z,99099.00
2022-10-23T04:38:32.610Z,99095.00
2022-10-23T04:40:12.571Z,99088.00
2022-10-23T04:41:56.416Z,99097.00
2022-10-23T04:43:38.322Z,99097.00
2022-10-23T04:45:16.155Z,99100.00
2022-10-23T04:46:53.932Z,99085.00
2022-10-23T04:48:36.691Z,99086.00
2022-10-23T04:50:42.118Z,99087.00
2022-10-23T04:52:38.995Z,99081.00
2022-10-23T04:54:46.299Z,99086.00
2022-10-23T04:56:39.228Z,99084.00
2022-10-23T04:58:19.466Z,99086.00
2022-10-23T04:59:57.509Z,99085.00
2022-10-23T05:01:34.774Z,99082.00
2022-10-23T05:03:14.136Z,99088.00
2022-10-23T05:04:52.660Z,99082.00
2022-10-23T05:06:59.603Z,99083.00
2022-10-23T05:08:59.251Z,99086.00
2022-10-23T05:10:51.197Z,99088.00
2022-10-23T05:12:30.234Z,99084.00
2022-10-23T05:14:07.978Z,99081.00
2022-10-23T05:17:29.454Z,99083.00
2022-10-23T05:19:10.273Z,99085.00
2022-10-23T05:20:52.565Z,99078.00
2022-10-23T05:22:38.232Z,99079.00
2022-10-23T05:24:20.277Z,99075.00
2022-10-23T05:26:07.611Z,99068.00
2022-10-23T05:27:49.110Z,99070.00
2022-10-23T05:29:26.887Z,99069.00
2022-10-23T05:31:08.034Z,99070.00
2022-10-23T05:32:49.407Z,99063.00
2022-10-23T05:34:40.832Z,99071.00
2022-10-23T05:36:20.246Z,99063.00
2022-10-23T05:38:05.848Z,99078.00
2022-10-23T05:39:45.443Z,99067.00
2022-10-23T05:41:24.998Z,99072.00
2022-10-23T05:43:07.166Z,99060.00
2022-10-23T05:44:56.976Z,99060.00
2022-10-23T05:46:54.902Z,99062.00
2022-10-23T05:48:55.184Z,99056.00
2022-10-23T05:50:48.152Z,99050.00
2022-10-23T05:52:35.484Z,99061.00
2022-10-23T05:54:23.071Z,99052.00
2022-10-23T05:56:23.700Z,99059.00
2022-10-23T05:58:12.604Z,99058.00
2022-10-23T06:00:09.568Z,99056.00
2022-10-23T06:02:08.232Z,99049.00
2022-10-23T06:04:01.518Z,99041.00
2022-10-23T06:05:56.363Z,99030.00
2022-10-23T06:07:39.291Z,99028.00
2022-10-23T06:09:19.892Z,99030.00
2022-10-23T06:10:55.811Z,99030.00
2022-10-23T06:12:35.598Z,99031.00
2022-10-23T06:14:13.498Z,99039.00
2022-10-23T06:15:52.605Z,99024.00
2022-10-23T06:17:36.368Z,99017.00
2022-10-23T06:19:18.783Z,99020.00
2022-10-23T06:21:01.886Z,99021.00
2022-10-23T06:22:43.692Z,99019.00
2022-10-23T06:24:38.043Z,99013.00
2022-10-23T06:26:25.582Z,99010.00
2022-10-23T06:28:25.538Z,99010.00
2022-10-23T06:30:07.863Z,99007.00
2022-10-23T06:31:46.243Z,99013.00
2022-10-23T06:33:27.107Z,99018.00
2022-10-23T06:35:04.878Z,99011.00
2022-10-23T06:36:43.291Z,99009.00
2022-10-23T06:38:41.964Z,99014.00
2022-10-23T06:40:20.056Z,99015.00
2022-10-23T06:42:08.140Z,99023.00
2022-10-23T06:44:05.109Z,99014.00
2022-10-23T06:45:51.598Z,99009.00
2022-10-23T06:47:55.318Z,99013.00
2022-10-23T06:49:53.702Z,99008.00
2022-10-23T06:51:36.833Z,99020.00
2022-10-23T06:53:16.049Z,99014.00
2022-10-23T06:55:00.151Z,99005.00
2022-10-23T06:56:44.800Z,98998.00
2022-10-23T06:58:22.759Z,99003.00
2022-10-23T07:00:10.993Z,98997.00
2022-10-23T07:01:56.860Z,99002.00
2022-10-23T07:03:35.445Z,99002.00
2022-10-23T07:05:18.430Z,98997.00
2022-10-23T07:06:59.603Z,98997.00
2022-10-23T07:08:45.863Z,98996.00
2022-10-23T07:10:43.749Z,98994.00
2022-10-23T07:12:21.441Z,98992.00
2022-10-23T07:14:09.352Z,98999.00
2022-10-23T07:15:46.582Z,99000.00
2022-10-23T07:17:33.093Z,98997.00
2022-10-23T07:19:11.721Z,98998.00
2022-10-23T07:21:04.601Z,98995.00
2022-10-23T07:22:42.731Z,98996.00
2022-10-23T07:24:26.399Z,98990.00
2022-10-23T07:26:15.383Z,99000.00
2022-10-23T07:27:55.807Z,98999.00
2022-10-23T07:29:36.052Z,98993.00
2022-10-23T07:31:13.995Z,98995.00
2022-10-23T07:33:13.527Z,98989.00
2022-10-23T07:34:59.450Z,98996.00
2022-10-23T07:36:41.966Z,98997.00
2022-10-23T07:38:19.454Z,99001.00
2022-10-23T07:40:02.466Z,99001.00
2022-10-23T07:41:55.645Z,98999.00
2022-10-23T07:43:34.677Z,99000.00
2022-10-23T07:45:13.545Z,98998.00
2022-10-23T07:46:54.702Z,98996.00
2022-10-23T07:48:33.590Z,98995.00
2022-10-23T07:50:13.983Z,98998.00
2022-10-23T07:51:52.804Z,98987.00
2022-10-23T07:53:31.395Z,98995.00
2022-10-23T07:55:16.651Z,98997.00
2022-10-23T07:57:02.784Z,98992.00
2022-10-23T07:58:50.893Z,98986.00
2022-10-23T08:00:29.438Z,98983.00
2022-10-23T08:02:19.233Z,98993.00
2022-10-23T08:04:00.799Z,98972.00
2022-10-23T08:05:41.340Z,98977.00
2022-10-23T08:07:23.064Z,98980.00
2022-10-23T08:09:05.334Z,98975.00
2022-10-23T08:10:49.945Z,98976.00
2022-10-23T08:12:35.084Z,98973.00
2022-10-23T08:14:13.620Z,98970.00
2022-10-23T08:15:54.007Z,98968.00
2022-10-23T08:17:50.582Z,98958.00
2022-10-23T08:19:33.164Z,98958.00
2022-10-23T08:21:15.999Z,98965.00
2022-10-23T08:22:56.372Z,98961.00
2022-10-23T08:24:38.852Z,98956.00
2022-10-23T08:26:17.807Z,98948.00
2022-10-23T08:28:04.174Z,98939.00
2022-10-23T08:29:54.379Z,98940.00
2022-10-23T08:31:40.421Z,98937.00
2022-10-23T08:33:34.898Z,98943.00
2022-10-23T08:35:13.953Z,98940.00
2022-10-23T08:36:52.028Z,98941.00
2022-10-23T08:38:29.528Z,98944.00
2022-10-23T08:40:16.855Z,98937.00
2022-10-23T08:42:27.557Z,98944.00
2022-10-23T08:44:24.767Z,98944.00
2022-10-23T08:46:13.983Z,98943.00
2022-10-23T08:48:24.893Z,98943.00
2022-10-23T08:50:31.804Z,98931.00
2022-10-23T08:52:20.301Z,98929.00
2022-10-23T08:54:07.043Z,98924.00
2022-10-23T08:55:49.933Z,98925.00
2022-10-23T08:57:37.748Z,98931.00
2022-10-23T08:59:30.140Z,98942.00
2022-10-23T09:01:40.450Z,98927.00
2022-10-23T09:03:20.383Z,98924.00
2022-10-23T09:05:00.307Z,98931.00
2022-10-23T09:06:48.224Z,98921.00
2022-10-23T09:08:42.034Z,98926.00
2022-10-23T09:10:40.646Z,98938.00
2022-10-23T09:12:21.130Z,98929.00
2022-10-23T09:14:45.518Z,98927.00
2022-10-23T09:16:44.358Z,98922.00
2022-10-23T09:18:21.748Z,98914.00
2022-10-23T09:20:13.826Z,98921.00
2022-10-23T09:21:54.122Z,98915.00
2022-10-23T09:23:32.369Z,98921.00
2022-10-23T09:25:14.446Z,98925.00
2022-10-23T09:26:57.524Z,98923.00
2022-10-23T09:28:48.891Z,98920.00
2022-10-23T09:30:37.077Z,98924.00
2022-10-23T09:32:14.535Z,98908.00
2022-10-23T09:34:01.082Z,98907.00
2022-10-23T09:35:43.106Z,98923.00
2022-10-23T09:37:28.325Z,98914.00
2022-10-23T09:39:06.504Z,98909.00
2022-10-23T09:40:48.753Z,98915.00
2022-10-23T09:42:28.027Z,98904.00
2022-10-23T09:44:22.676Z,98903.00
2022-10-23T09:46:11.031Z,98904.00
2022-10-23T09:47:48.498Z,98893.00
2022-10-23T09:49:29.173Z,98889.00
2022-10-23T09:51:20.487Z,98894.00
2022-10-23T09:53:04.876Z,98891.00
2022-10-23T09:54:52.861Z,98889.00
2022-10-23T09:56:36.830Z,98887.00
2022-10-23T09:58:34.207Z,98881.00
2022-10-23T10:00:22.912Z,98886.00
2022-10-23T10:02:05.801Z,98877.00
2022-10-23T10:04:03.917Z,98879.00
2022-10-23T10:05:44.886Z,98870.00
2022-10-23T10:07:34.668Z,98876.00
2022-10-23T10:09:17.319Z,98870.00
2022-10-23T10:11:04.023Z,98872.00
2022-10-23T10:12:52.991Z,98873.00
2022-10-23T10:14:54.095Z,98865.00
2022-10-23T10:16:47.424Z,98860.00
2022-10-23T10:18:41.510Z,98851.00
2022-10-23T10:21:07.285Z,98858.00
2022-10-23T10:22:57.655Z,98857.00
2022-10-23T10:24:44.549Z,98844.00
2022-10-23T10:26:37.603Z,98848.00
2022-10-23T10:28:41.551Z,98845.00
2022-10-23T10:30:23.499Z,98843.00
2022-10-23T10:32:28.083Z,98834.00
2022-10-23T10:34:26.557Z,98828.00
2022-10-23T10:36:18.411Z,98836.00
2022-10-23T10:38:42.812Z,98830.00
2022-10-23T10:40:37.869Z,98830.00
2022-10-23T10:42:59.782Z,98819.00
2022-10-23T10:45:28.952Z,98800.00
2022-10-23T10:47:20.161Z,98807.00
2022-10-23T10:49:09.187Z,98810.00
2022-10-23T10:51:06.895Z,98810.00
2022-10-23T10:53:07.489Z,98798.00
2022-10-23T10:54:59.557Z,98799.00
2022-10-23T10:56:44.508Z,98793.00
2022-10-23T10:58:34.592Z,98796.00
2022-10-23T11:00:26.057Z,98802.00
2022-10-23T11:02:22.864Z,98797.00
2022-10-23T11:04:09.646Z,98785.00
2022-10-23T11:05:51.677Z,98782.00
2022-10-23T11:07:41.035Z,98778.00
2022-10-23T11:09:25.375Z,98782.00
2022-10-23T11:11:10.905Z,98777.00
2022-10-23T11:12:51.179Z,98769.00
2022-10-23T11:14:34.633Z,98767.00
2022-10-23T11:16:20.505Z,98767.00
2022-10-23T11:18:03.883Z,98762.00
2022-10-23T11:19:51.735Z,98761.00
2022-10-23T11:21:40.950Z,98750.00
2022-10-23T11:24:06.413Z,98748.00
2022-10-23T11:26:19.712Z,98729.00
2022-10-23T11:28:26.637Z,98720.00
2022-10-23T11:30:28.306Z,98714.00
2022-10-23T11:32:39.032Z,98712.00
2022-10-23T11:35:07.764Z,98718.00
2022-10-23T11:36:52.748Z,98711.00
2022-10-23T11:38:36.851Z,98711.00
2022-10-23T11:40:28.199Z,98698.00
2022-10-23T11:42:30.420Z,98703.00
2022-10-23T11:44:42.118Z,98693.00
2022-10-23T11:46:34.918Z,98706.00
2022-10-23T11:48:37.895Z,98718.00
2022-10-23T11:50:28.732Z,98734.00
2022-10-23T11:52:09.600Z,98746.00
2022-10-23T11:53:53.919Z,98753.00
2022-10-23T11:55:38.262Z,98753.00
2022-10-23T11:57:19.732Z,98749.00
2022-10-23T11:59:01.818Z,98745.00
2022-10-23T12:00:57.845Z,98733.00
2022-10-23T12:02:43.635Z,98735.00
2022-10-23T12:04:31.218Z,98723.00
2022-10-23T12:06:19.447Z,98718.00
2022-10-23T12:08:03.013Z,98717.00
2022-10-23T12:09:49.114Z,98702.00
2022-10-23T12:11:49.420Z,98692.00
2022-10-23T12:13:49.496Z,98695.00
2022-10-23T12:15:29.092Z,98714.00
2022-10-23T12:17:30.845Z,98718.00
2022-10-23T12:19:24.493Z,98721.00
2022-10-23T12:21:02.520Z,98714.00
2022-10-23T12:22:53.985Z,98716.00
2022-10-23T12:24:51.913Z,98719.00
2022-10-23T12:27:09.436Z,98710.00
2022-10-23T12:29:00.044Z,98702.00
2022-10-23T12:30:47.792Z,98698.00
2022-10-23T12:32:46.268Z,98698.00
2022-10-23T12:34:42.075Z,98682.00
2022-10-23T12:36:55.552Z,98682.00
2022-10-23T12:38:35.722Z,98680.00
2022-10-23T12:40:16.691Z,98677.00
2022-10-23T12:41:57.154Z,98663.00
2022-10-23T12:43:39.839Z,98662.00
2022-10-23T12:45:23.125Z,98656.00
2022-10-23T12:47:06.821Z,98657.00
2022-10-23T12:48:51.694Z,98654.00
2022-10-23T12:50:35.023Z,98658.00
2022-10-23T12:52:22.315Z,98643.00
2022-10-23T12:54:00.606Z,98634.00
2022-10-23T12:55:56.251Z,98630.00
2022-10-23T12:57:34.389Z,98633.00
2022-10-23T12:59:23.850Z,98631.00
2022-10-23T13:01:04.811Z,98633.00
2022-10-23T13:02:41.910Z,98636.00
2022-10-23T13:04:34.243Z,98627.00
2022-10-23T13:06:14.662Z,98631.00
2022-10-23T13:07:53.876Z,98628.00
2022-10-23T13:09:45.468Z,98632.00
2022-10-23T13:11:27.182Z,98622.00
2022-10-23T13:13:12.014Z,98624.00
2022-10-23T13:15:04.464Z,98624.00
2022-10-23T13:17:03.947Z,98624.00
2022-10-23T13:18:46.620Z,98627.00
2022-10-23T13:20:28.777Z,98628.00
2022-10-23T13:22:19.813Z,98626.00
2022-10-23T13:24:01.601Z,98628.00
2022-10-23T13:25:42.324Z,98621.00
2022-10-23T13:27:35.111Z,98620.00
2022-10-23T13:31:25.147Z,98611.00
2022-10-23T13:33:04.827Z,98601.00
2022-10-23T13:35:03.785Z,98599.00
2022-10-23T13:37:01.120Z,98592.00
2022-10-23T13:38:41.185Z,98597.00
2022-10-23T13:40:27.757Z,98595.00
2022-10-23T13:42:16.718Z,98603.00
2022-10-23T13:43:54.121Z,98607.00
2022-10-23T13:45:32.339Z,98597.00
2022-10-23T13:47:20.238Z,98594.00
2022-10-23T13:49:03.316Z,98597.00
2022-10-23T13:50:40.357Z,98589.00
2022-10-23T13:52:26.309Z,98588.00
2022-10-23T13:54:03.546Z,98587.00
2022-10-23T13:55:48.660Z,98572.00
2022-10-23T13:57:27.807Z,98569.00
2022-10-23T13:59:05.484Z,98563.00
2022-10-23T14:00:44.571Z,98557.00
2022-10-23T14:02:25.904Z,98563.00
2022-10-23T14:04:06.733Z,98561.00
2022-10-23T14:05:45.170Z,98565.00
2022-10-23T14:07:24.528Z,98561.00
2022-10-23T14:09:06.764Z,98542.00
2022-10-23T14:10:44.267Z,98548.00
2022-10-23T14:12:24.058Z,98548.00
2022-10-23T14:14:04.741Z,98555.00
2022-10-23T14:15:44.421Z,98562.00
2022-10-23T14:17:22.409Z,98555.00
2022-10-23T14:19:01.150Z,98557.00
2022-10-23T14:20:45.763Z,98562.00
2022-10-23T14:22:23.807Z,98557.00
2022-10-23T14:24:02.798Z,98557.00
2022-10-23T14:25:40.661Z,98549.00
2022-10-23T14:27:20.065Z,98551.00
2022-10-23T14:29:02.342Z,98560.00
2022-10-23T14:30:45.232Z,98549.00
2022-10-23T14:32:23.298Z,98550.00
2022-10-23T14:34:07.957Z,98547.00
2022-10-23T14:35:47.391Z,98551.00
2022-10-23T14:37:28.262Z,98551.00
2022-10-23T14:39:06.996Z,98548.00
2022-10-23T14:40:44.759Z,98550.00
2022-10-23T14:42:22.629Z,98548.00
2022-10-23T14:44:03.302Z,98556.00
2022-10-23T14:45:44.181Z,98550.00
2022-10-23T14:47:21.957Z,98534.00
2022-10-23T14:49:02.291Z,98522.00
2022-10-23T14:50:45.664Z,98530.00
2022-10-23T14:52:26.381Z,98524.00
2022-10-23T14:54:05.666Z,98510.00
2022-10-23T14:55:43.739Z,98516.00
2022-10-23T14:57:22.672Z,98506.00
2022-10-23T14:59:03.582Z,98515.00
2022-10-23T15:00:43.686Z,98504.00
2022-10-23T15:02:21.802Z,98500.00
2022-10-23T15:04:00.005Z,98507.00
2022-10-23T15:05:45.650Z,98500.00
2022-10-23T15:07:25.348Z,98499.00
2022-10-23T15:09:02.751Z,98500.00
2022-10-23T15:10:41.914Z,98490.00
2022-10-23T15:12:23.256Z,98494.00
2022-10-23T15:14:02.911Z,98498.00
2022-10-23T15:15:41.321Z,98495.00
2022-10-23T15:17:18.729Z,98494.00
2022-10-23T15:18:55.805Z,98483.00
2022-10-23T15:20:33.396Z,98496.00
2022-10-23T15:22:11.798Z,98490.00
2022-10-23T15:23:53.886Z,98490.00
2022-10-23T15:25:33.168Z,98484.00
2022-10-23T15:27:11.426Z,98484.00
2022-10-23T15:28:49.139Z,98485.00
2022-10-23T15:30:32.948Z,98490.00
2022-10-23T15:32:13.289Z,98488.00
2022-10-23T15:33:50.765Z,98504.00
2022-10-23T15:35:34.508Z,98504.00
2022-10-23T15:37:13.514Z,98495.00
2022-10-23T15:38:53.997Z,98496.00
2022-10-23T15:40:31.992Z,98497.00
2022-10-23T15:42:10.882Z,98493.00
2022-10-23T15:45:30.605Z,98490.00
2022-10-23T15:47:10.330Z,98490.00
2022-10-23T15:48:47.982Z,98494.00
2022-10-23T15:50:26.363Z,98499.00
2022-10-23T15:52:07.320Z,98496.00
2022-10-23T15:53:48.402Z,98499.00
2022-10-23T15:55:28.997Z,98504.00
2022-10-23T15:57:06.984Z,98502.00
2022-10-23T15:58:44.070Z,98511.00
2022-10-23T16:00:21.967Z,98507.00
2022-10-23T16:01:59.663Z,98499.00
2022-10-23T16:03:43.411Z,98502.00
2022-10-23T16:05:21.808Z,98505.00
2022-10-23T16:06:59.968Z,98501.00
2022-10-23T16:08:38.117Z,98509.00
2022-10-23T16:10:15.441Z,98509.00
2022-10-23T16:11:55.054Z,98518.00
2022-10-23T16:13:33.060Z,98526.00
2022-10-23T16:15:10.733Z,98516.00
2022-10-23T16:16:52.280Z,98507.00
2022-10-23T16:18:30.121Z,98508.00
2022-10-23T16:20:08.987Z,98514.00
2022-10-23T16:21:46.779Z,98519.00
2022-10-23T16:23:24.635Z,98515.00
2022-10-23T16:25:03.014Z,98513.00
2022-10-23T16:26:46.543Z,98514.00
2022-10-23T16:28:26.078Z,98515.00
2022-10-23T16:30:08.163Z,98517.00
2022-10-23T16:31:45.706Z,98525.00
2022-10-23T16:33:24.421Z,98531.00
2022-10-23T16:35:02.324Z,98536.00
2022-10-23T16:36:51.089Z,98541.00
2022-10-23T16:38:45.455Z,98551.00
2022-10-23T16:40:23.999Z,98561.00
2022-10-23T16:42:21.318Z,98550.00
2022-10-23T16:44:21.279Z,98570.00
2022-10-23T16:46:10.381Z,98579.00
2022-10-23T16:47:49.038Z,98571.00
2022-10-23T16:49:28.303Z,98566.00
2022-10-23T16:51:09.668Z,98561.00
2022-10-23T16:52:49.102Z,98559.00
2022-10-23T16:54:30.418Z,98581.00
2022-10-23T16:56:09.788Z,98587.00
2022-10-23T16:57:48.020Z,98590.00
2022-10-23T16:59:28.173Z,98597.00
2022-10-23T17:01:08.433Z,98596.00
2022-10-23T17:02:47.948Z,98618.00
2022-10-23T17:04:26.393Z,98622.00
2022-10-23T17:06:08.719Z,98624.00
2022-10-23T17:07:47.935Z,98628.00
2022-10-23T17:09:32.064Z,98636.00
2022-10-23T17:11:14.721Z,98634.00
2022-10-23T17:12:52.293Z,98640.00
2022-10-23T17:14:32.949Z,98641.00
2022-10-23T17:16:17.264Z,98651.00
2022-10-23T17:18:03.006Z,98655.00
2022-10-23T17:19:46.509Z,98675.00
2022-10-23T17:21:28.745Z,98707.00
2022-10-23T17:23:09.171Z,98712.00
2022-10-23T17:24:52.989Z,98709.00
2022-10-23T17:26:39.627Z,98704.00
2022-10-23T17:28:16.319Z,98719.00
2022-10-23T17:29:57.950Z,98722.00
2022-10-23T17:31:40.472Z,98714.00
2022-10-23T17:33:17.442Z,98685.00
2022-10-23T17:34:57.538Z,98684.00
2022-10-23T17:36:37.769Z,98675.00
2022-10-23T17:38:18.548Z,98650.00
2022-10-23T17:40:01.007Z,98612.00
2022-10-23T17:41:39.583Z,98591.00
2022-10-23T17:43:17.074Z,98596.00
2022-10-23T17:44:57.277Z,98603.00
2022-10-23T17:46:34.725Z,98604.00
2022-10-23T17:48:13.827Z,98598.00
2022-10-23T17:49:51.087Z,98607.00
2022-10-23T17:51:34.030Z,98615.00
2022-10-23T17:53:13.263Z,98605.00
2022-10-23T17:54:55.035Z,98605.00
2022-10-23T17:56:36.123Z,98599.00
2022-10-23T17:58:16.853Z,98610.00
2022-10-23T17:59:55.591Z,98597.00
2022-10-23T18:01:33.549Z,98580.00
2022-10-23T18:03:08.269Z,98552.00
2022-10-23T18:04:42.337Z,98542.00
2022-10-23T18:06:24.427Z,98540.00
2022-10-23T18:08:01.623Z,98529.00
2022-10-23T18:09:35.649Z,98543.00
2022-10-23T18:11:15.758Z,98548.00
2022-10-23T18:12:49.173Z,98548.00
2022-10-23T18:14:25.124Z,98551.00
2022-10-23T18:16:04.768Z,98547.00
2022-10-23T18:17:37.909Z,98540.00
2022-10-23T18:19:12.131Z,98535.00
2022-10-23T18:20:46.200Z,98534.00
2022-10-23T18:22:20.091Z,98528.00
2022-10-23T18:23:53.914Z,98535.00
2022-10-23T18:25:27.193Z,98537.00
2022-10-23T18:27:00.429Z,98537.00
2022-10-23T18:28:33.953Z,98528.00
2022-10-23T18:30:09.314Z,98524.00
2022-10-23T18:31:46.229Z,98513.00
2022-10-23T18:33:20.351Z,98505.00
2022-10-23T18:34:54.203Z,98504.00
2022-10-23T18:36:31.456Z,98496.00
2022-10-23T18:38:05.951Z,98508.00
2022-10-23T18:39:39.215Z,98506.00
2022-10-23T18:41:12.628Z,98507.00
2022-10-23T18:42:46.566Z,98498.00
2022-10-23T18:44:22.115Z,98497.00
2022-10-23T18:46:00.337Z,98494.00
2022-10-23T18:47:35.661Z,98489.00
2022-10-23T18:49:08.951Z,98490.00
2022-10-23T18:50:45.204Z,98487.00
2022-10-23T18:52:32.288Z,98491.00
2022-10-23T18:54:15.603Z,98479.00
2022-10-23T18:55:54.335Z,98485.00
2022-10-23T18:57:31.824Z,98478.00
2022-10-23T18:59:12.688Z,98480.00
2022-10-23T19:00:53.393Z,98489.00
2022-10-23T19:02:32.233Z,98494.00
2022-10-23T19:04:13.799Z,98490.00
2022-10-23T19:05:56.656Z,98499.00
2022-10-23T19:07:36.076Z,98496.00
2022-10-23T19:09:16.059Z,98501.00
2022-10-23T19:11:00.970Z,98494.00
2022-10-23T19:12:40.943Z,98492.00
2022-10-23T19:14:19.201Z,98485.00
2022-10-23T19:16:01.917Z,98491.00
2022-10-23T19:17:41.165Z,98487.00
2022-10-23T19:19:28.489Z,98476.00
2022-10-23T19:21:09.171Z,98486.00
2022-10-23T19:22:49.904Z,98473.00
2022-10-23T19:24:34.540Z,98473.00
2022-10-23T19:26:15.564Z,98466.00
2022-10-23T19:27:55.483Z,98476.00
2022-10-23T19:29:33.608Z,98471.00
2022-10-23T19:31:14.809Z,98468.00
2022-10-23T19:32:52.200Z,98475.00
2022-10-23T19:34:31.785Z,98473.00
2022-10-23T19:36:14.503Z,98469.00
2022-10-23T19:37:57.375Z,98476.00
2022-10-23T19:39:35.346Z,98477.00
2022-10-23T19:41:13.669Z,98474.00
2022-10-23T19:42:51.542Z,98467.00
2022-10-23T19:44:28.991Z,98469.00
2022-10-23T19:46:12.826Z,98470.00
2022-10-23T19:47:53.818Z,98465.00
2022-10-23T19:49:35.147Z,98463.00
2022-10-23T19:51:15.225Z,98473.00
2022-10-23T19:52:52.378Z,98471.00
2022-10-23T19:54:31.978Z,98473.00
2022-10-23T19:56:11.730Z,98467.00
2022-10-23T19:57:52.366Z,98464.00
2022-10-23T19:59:31.620Z,98465.00
2022-10-23T20:01:18.108Z,98467.00
2022-10-23T20:02:56.117Z,98461.00
2022-10-23T20:04:36.153Z,98471.00
2022-10-23T20:06:15.509Z,98470.00
2022-10-23T20:07:59.556Z,98472.00
2022-10-23T20:09:36.993Z,98478.00
2022-10-23T20:11:21.131Z,98474.00
2022-10-23T20:13:18.705Z,98487.00
2022-10-23T20:14:56.874Z,98488.00
2022-10-23T20:16:38.160Z,98492.00
2022-10-23T20:18:17.248Z,98492.00
2022-10-23T20:19:58.061Z,98498.00
2022-10-23T20:21:41.642Z,98501.00
2022-10-23T20:23:18.732Z,98489.00
2022-10-23T20:24:57.053Z,98492.00
2022-10-23T20:26:34.760Z,98480.00
2022-10-23T20:28:14.429Z,98479.00
2022-10-23T20:29:54.272Z,98478.00
2022-10-23T20:31:32.977Z,98486.00